createdAt,value
2022-10-21T00:01:40.409Z,17.51
2022-10-21T00:04:07.027Z,17.69
2022-10-21T00:06:33.504Z,17.47
2022-10-21T00:09:00.139Z,17.45
2022-10-21T00:11:27.061Z,17.06
2022-10-21T00:13:54.078Z,17.40
2022-10-21T00:16:20.597Z,17.24
2022-10-21T00:18:48.019Z,17.39
2022-10-21T00:21:19.592Z,17.48
2022-10-21T00:23:47.088Z,17.54
2022-10-21T00:26:14.794Z,17.30
2022-10-21T00:28:42.223Z,17.46
2022-10-21T00:31:10.345Z,17.72
2022-10-21T00:33:37.451Z,17.91
2022-10-21T00:36:06.030Z,17.96
2022-10-21T00:38:33.005Z,18.02
2022-10-21T00:40:59.776Z,18.01
2022-10-21T00:43:27.166Z,18.58
2022-10-21T00:45:57.563Z,18.59
2022-10-21T00:48:27.094Z,18.78
2022-10-21T00:50:59.926Z,18.23
2022-10-21T00:53:26.985Z,18.44
2022-10-21T00:56:00.619Z,18.63
2022-10-21T00:58:30.907Z,18.22
2022-10-21T01:00:58.479Z,18.94
2022-10-21T01:03:26.147Z,18.52
2022-10-21T01:05:54.151Z,18.50
2022-10-21T01:08:20.823Z,18.78
2022-10-21T01:10:47.473Z,19.19
2022-10-21T01:13:51.643Z,19.41
2022-10-21T01:16:41.216Z,19.11
2022-10-21T01:19:47.381Z,18.93
2022-10-21T01:22:32.192Z,18.95
2022-10-21T01:25:36.229Z,18.66
2022-10-21T01:28:08.773Z,19.12
2022-10-21T01:30:40.371Z,19.33
2022-10-21T01:33:19.150Z,19.12
2022-10-21T01:35:55.051Z,19.16
2022-10-21T01:38:32.846Z,19.27
2022-10-21T01:41:06.147Z,18.95
2022-10-21T01:43:38.806Z,18.64
2022-10-21T01:46:12.997Z,18.97
2022-10-21T01:48:43.994Z,19.11
2022-10-21T01:51:11.277Z,19.41
2022-10-21T01:53:56.129Z,19.69
2022-10-21T01:56:22.936Z,19.52
2022-10-21T01:58:50.168Z,19.78
2022-10-21T02:01:17.913Z,19.35
2022-10-21T02:03:46.753Z,19.27
2022-10-21T02:06:14.124Z,19.48
2022-10-21T02:08:42.331Z,19.57
2022-10-21T02:11:11.034Z,19.56
2022-10-21T02:13:49.162Z,19.28
2022-10-21T02:16:17.858Z,19.20
2022-10-21T02:18:44.548Z,19.20
2022-10-21T02:21:18.963Z,19.31
2022-10-21T02:23:57.895Z,19.21
2022-10-21T02:26:26.529Z,19.16
2022-10-21T02:28:54.045Z,19.15
2022-10-21T02:31:23.557Z,18.92
2022-10-21T02:34:08.288Z,18.88
2022-10-21T02:36:56.703Z,18.69
2022-10-21T02:39:35.219Z,18.85
2022-10-21T02:42:04.613Z,18.41
2022-10-21T02:44:31.130Z,18.43
2022-10-21T02:46:57.711Z,18.95
2022-10-21T02:49:24.542Z,18.98
2022-10-21T02:51:50.970Z,18.60
2022-10-21T02:54:17.453Z,18.84
2022-10-21T02:56:43.922Z,18.59
2022-10-21T02:59:10.798Z,18.60
2022-10-21T03:01:37.209Z,18.70
2022-10-21T03:04:03.671Z,18.54
2022-10-21T03:06:30.216Z,18.28
2022-10-21T03:08:56.671Z,18.56
2022-10-21T03:11:23.161Z,18.54
2022-10-21T03:13:49.613Z,18.54
2022-10-21T03:16:16.368Z,18.22
2022-10-21T03:18:43.449Z,18.27
2022-10-21T03:21:09.930Z,17.86
2022-10-21T03:23:36.352Z,17.94
2022-10-21T03:26:02.757Z,18.01
2022-10-21T03:28:30.429Z,17.75
2022-10-21T03:30:56.997Z,17.49
2022-10-21T03:33:23.464Z,17.77
2022-10-21T03:35:49.849Z,17.72
2022-10-21T03:38:16.673Z,17.68
2022-10-21T03:40:43.106Z,17.61
2022-10-21T03:43:09.570Z,17.66
2022-10-21T03:45:36.070Z,17.75
2022-10-21T03:48:02.560Z,17.52
2022-10-21T03:50:29.121Z,17.38
2022-10-21T03:52:55.652Z,17.09
2022-10-21T03:55:24.238Z,17.44
2022-10-21T03:57:51.560Z,17.29
2022-10-21T04:00:18.219Z,17.30
2022-10-21T04:02:44.726Z,17.58
2022-10-21T04:05:11.837Z,17.60
2022-10-21T04:07:38.364Z,17.64
2022-10-21T04:10:06.318Z,17.59
2022-10-21T04:12:32.884Z,17.28
2022-10-21T04:14:59.329Z,17.12
2022-10-21T04:17:26.469Z,17.28
2022-10-21T04:19:52.931Z,17.33
2022-10-21T04:22:19.372Z,16.63
2022-10-21T04:24:45.829Z,16.83
2022-10-21T04:27:12.316Z,16.73
2022-10-21T04:29:38.809Z,16.90
2022-10-21T04:32:05.430Z,16.84
2022-10-21T04:34:31.926Z,16.73
2022-10-21T04:37:01.103Z,16.87
2022-10-21T04:39:30.735Z,17.10
2022-10-21T04:41:57.322Z,17.20
2022-10-21T04:44:23.802Z,16.70
2022-10-21T04:46:50.753Z,17.18
2022-10-21T04:49:17.316Z,17.00
2022-10-21T04:51:43.908Z,17.04
2022-10-21T04:54:10.461Z,17.01
2022-10-21T04:56:36.931Z,16.80
2022-10-21T04:59:03.469Z,17.13
2022-10-21T05:01:29.961Z,16.91
2022-10-21T05:03:56.466Z,17.20
2022-10-21T05:06:23.056Z,16.80
2022-10-21T05:08:49.612Z,16.78
2022-10-21T05:11:16.154Z,16.91
2022-10-21T05:13:42.625Z,16.62
2022-10-21T05:16:09.066Z,16.77
2022-10-21T05:18:35.575Z,16.87
2022-10-21T05:21:02.723Z,16.42
2022-10-21T05:23:29.380Z,16.50
2022-10-21T05:25:55.839Z,16.49
2022-10-21T05:28:22.654Z,16.49
2022-10-21T05:30:49.395Z,16.80
2022-10-21T05:33:16.532Z,16.75
2022-10-21T05:35:42.978Z,16.74
2022-10-21T05:38:09.489Z,16.41
2022-10-21T05:40:35.945Z,16.75
2022-10-21T05:43:02.442Z,17.27
2022-10-21T05:45:29.054Z,17.31
2022-10-21T05:47:55.515Z,17.52
2022-10-21T05:50:21.991Z,17.03
2022-10-21T05:52:48.867Z,17.41
2022-10-21T05:55:15.459Z,17.12
2022-10-21T05:57:42.135Z,17.33
2022-10-21T06:00:09.749Z,16.97
2022-10-21T06:02:44.506Z,17.82
2022-10-21T06:05:11.138Z,17.75
2022-10-21T06:07:37.903Z,17.84
2022-10-21T06:10:05.355Z,17.78
2022-10-21T06:12:31.866Z,17.85
2022-10-21T06:14:58.425Z,18.15
2022-10-21T06:17:24.959Z,17.91
2022-10-21T06:19:51.490Z,17.70
2022-10-21T06:22:18.144Z,17.85
2022-10-21T06:24:44.616Z,18.13
2022-10-21T06:27:11.127Z,17.65
2022-10-21T06:29:47.611Z,17.83
2022-10-21T06:32:14.056Z,17.96
2022-10-21T06:34:40.747Z,17.57
2022-10-21T06:37:07.210Z,17.84
2022-10-21T06:39:33.760Z,17.88
2022-10-21T06:42:00.175Z,17.85
2022-10-21T06:44:26.636Z,18.06
2022-10-21T06:46:54.108Z,18.23
2022-10-21T06:49:20.583Z,18.08
2022-10-21T06:51:47.032Z,18.40
2022-10-21T06:54:13.571Z,18.33
2022-10-21T06:56:40.338Z,17.93
2022-10-21T06:59:06.884Z,18.21
2022-10-21T07:01:48.152Z,18.51
2022-10-21T07:04:20.017Z,18.55
2022-10-21T07:06:46.469Z,18.26
2022-10-21T07:09:13.104Z,18.87
2022-10-21T07:11:39.781Z,19.12
2022-10-21T07:14:07.451Z,19.51
2022-10-21T07:16:38.839Z,19.62
2022-10-21T07:19:10.211Z,19.61
2022-10-21T07:21:36.725Z,19.85
2022-10-21T07:24:03.277Z,19.70
2022-10-21T07:26:31.801Z,19.90
2022-10-21T07:28:59.789Z,20.02
2022-10-21T07:31:27.033Z,20.10
2022-10-21T07:33:54.116Z,20.10
2022-10-21T07:36:25.914Z,20.11
2022-10-21T07:38:53.662Z,20.11
2022-10-21T07:41:22.741Z,20.01
2022-10-21T07:43:49.974Z,20.00
2022-10-21T07:46:18.174Z,19.75
2022-10-21T07:48:44.793Z,19.91
2022-10-21T07:51:13.794Z,19.85
2022-10-21T07:53:40.811Z,19.82
2022-10-21T07:56:08.248Z,20.07
2022-10-21T07:58:35.302Z,20.15
2022-10-21T08:01:03.574Z,20.17
2022-10-21T08:03:30.314Z,20.25
2022-10-21T08:05:57.305Z,20.23
2022-10-21T08:08:24.972Z,20.20
2022-10-21T08:10:52.760Z,20.41
2022-10-21T08:13:19.813Z,20.29
2022-10-21T08:15:49.153Z,20.57
2022-10-21T08:18:16.665Z,20.62
2022-10-21T08:20:44.430Z,20.66
2022-10-21T08:23:11.997Z,20.63
2022-10-21T08:25:38.570Z,20.61
2022-10-21T08:28:05.814Z,20.43
2022-10-21T08:30:32.902Z,20.28
2022-10-21T08:32:59.572Z,20.30
2022-10-21T08:35:27.067Z,20.01
2022-10-21T08:37:54.166Z,19.75
2022-10-21T08:40:20.900Z,19.91
2022-10-21T08:42:47.488Z,19.34
2022-10-21T08:45:32.926Z,19.25
2022-10-21T08:48:03.758Z,19.63
2022-10-21T08:50:35.656Z,19.97
2022-10-21T08:53:06.390Z,20.13
2022-10-21T08:55:37.090Z,19.78
2022-10-21T08:58:04.371Z,19.56
2022-10-21T09:01:05.587Z,19.20
2022-10-21T09:03:48.329Z,19.13
2022-10-21T09:06:28.366Z,18.95
2022-10-21T09:09:02.271Z,19.45
2022-10-21T09:11:51.949Z,19.44
2022-10-21T09:14:27.680Z,19.98
2022-10-21T09:17:01.961Z,20.37
2022-10-21T09:19:37.587Z,20.30
2022-10-21T09:22:35.983Z,20.61
2022-10-21T09:25:19.398Z,20.61
2022-10-21T09:28:01.991Z,20.59
2022-10-21T09:30:28.855Z,20.53
2022-10-21T09:32:59.912Z,20.45
2022-10-21T09:35:44.123Z,19.63
2022-10-21T09:38:10.535Z,20.42
2022-10-21T09:40:36.993Z,20.58
2022-10-21T09:43:04.209Z,20.60
2022-10-21T09:45:36.642Z,20.46
2022-10-21T09:48:18.155Z,19.96
2022-10-21T09:50:51.624Z,19.20
2022-10-21T09:53:26.571Z,19.10
2022-10-21T09:56:02.331Z,19.78
2022-10-21T09:58:36.606Z,19.21
2022-10-21T10:01:03.653Z,19.17
2022-10-21T10:03:34.272Z,18.70
2022-10-21T10:06:01.761Z,18.42
2022-10-21T10:08:33.795Z,18.95
2022-10-21T10:11:04.358Z,18.49
2022-10-21T10:13:31.967Z,18.92
2022-10-21T10:16:19.415Z,18.49
2022-10-21T10:18:46.021Z,18.34
2022-10-21T10:21:17.541Z,18.11
2022-10-21T10:23:44.089Z,18.27
2022-10-21T10:26:10.949Z,18.21
2022-10-21T10:28:37.589Z,18.33
2022-10-21T10:31:04.199Z,18.66
2022-10-21T10:33:35.178Z,18.97
2022-10-21T10:36:05.573Z,18.65
2022-10-21T10:38:38.089Z,18.33
2022-10-21T10:41:07.951Z,18.51
2022-10-21T10:43:44.013Z,18.35
2022-10-21T10:46:20.942Z,18.33
2022-10-21T10:48:50.625Z,18.59
2022-10-21T10:51:24.232Z,18.26
2022-10-21T10:54:20.328Z,18.42
2022-10-21T10:56:58.845Z,18.51
2022-10-21T10:59:44.810Z,18.90
2022-10-21T11:02:12.130Z,18.76
2022-10-21T11:04:46.462Z,18.60
2022-10-21T11:07:17.342Z,18.75
2022-10-21T11:09:44.143Z,18.77
2022-10-21T11:12:20.298Z,18.87
2022-10-21T11:14:51.084Z,19.50
2022-10-21T11:17:20.822Z,19.67
2022-10-21T11:20:13.423Z,19.62
2022-10-21T11:23:23.330Z,19.34
2022-10-21T11:26:03.380Z,18.90
2022-10-21T11:28:35.993Z,18.58
2022-10-21T11:31:26.634Z,18.79
2022-10-21T11:34:11.426Z,18.23
2022-10-21T11:36:49.410Z,18.36
2022-10-21T11:39:24.823Z,18.30
2022-10-21T11:42:11.014Z,18.54
2022-10-21T11:45:16.801Z,18.41
2022-10-21T11:47:49.114Z,18.60
2022-10-21T11:50:15.773Z,18.13
2022-10-21T11:52:51.637Z,18.56
2022-10-21T11:55:55.826Z,19.00
2022-10-21T11:58:47.501Z,18.47
2022-10-21T12:01:41.290Z,18.81
2022-10-21T12:04:21.569Z,18.75
2022-10-21T12:06:53.518Z,19.01
2022-10-21T12:09:24.259Z,18.23
2022-10-21T12:12:05.853Z,18.27
2022-10-21T12:14:52.141Z,18.73
2022-10-21T12:17:21.098Z,19.02
2022-10-21T12:20:01.791Z,19.26
2022-10-21T12:22:29.379Z,18.75
2022-10-21T12:25:35.504Z,18.82
2022-10-21T12:28:11.823Z,19.05
2022-10-21T12:30:43.704Z,18.77
2022-10-21T12:33:38.308Z,19.64
2022-10-21T12:36:40.221Z,19.05
2022-10-21T12:39:32.855Z,19.52
2022-10-21T12:42:12.521Z,19.79
2022-10-21T12:44:40.143Z,19.37
2022-10-21T12:47:32.158Z,20.02
2022-10-21T12:50:14.073Z,20.48
2022-10-21T12:52:44.667Z,21.12
2022-10-21T12:55:21.215Z,20.83
2022-10-21T12:57:56.827Z,20.90
2022-10-21T13:03:25.599Z,20.22
2022-10-21T13:06:02.762Z,21.36
2022-10-21T13:08:38.515Z,22.40
2022-10-21T13:11:08.082Z,22.14
2022-10-21T13:13:39.363Z,21.90
2022-10-21T13:16:18.037Z,22.98
2022-10-21T13:18:50.553Z,22.59
2022-10-21T13:21:31.160Z,22.07
2022-10-21T13:24:06.179Z,21.92
2022-10-21T13:26:32.761Z,22.06
2022-10-21T13:29:05.336Z,22.23
2022-10-21T13:31:31.929Z,22.55
2022-10-21T13:33:58.645Z,23.02
2022-10-21T13:39:25.012Z,22.07
2022-10-21T13:42:06.936Z,22.23
2022-10-21T13:44:35.963Z,21.79
2022-10-21T13:47:38.194Z,21.15
2022-10-21T13:50:10.427Z,20.93
2022-10-21T13:52:36.846Z,20.77
2022-10-21T13:55:05.297Z,20.67
2022-10-21T13:57:35.474Z,20.83
2022-10-21T14:00:15.904Z,20.97
2022-10-21T14:02:47.811Z,20.84
2022-10-21T14:05:59.372Z,21.01
2022-10-21T14:08:33.177Z,20.43
2022-10-21T14:11:02.413Z,20.41
2022-10-21T14:13:36.898Z,20.02
2022-10-21T14:16:04.749Z,20.18
2022-10-21T14:18:37.142Z,20.56
2022-10-21T14:21:05.560Z,20.83
2022-10-21T14:23:32.392Z,20.25
2022-10-21T14:26:05.827Z,20.29
2022-10-21T14:28:33.653Z,20.66
2022-10-21T14:31:01.361Z,20.29
2022-10-21T14:33:28.954Z,20.74
2022-10-21T14:36:14.735Z,21.16
2022-10-21T14:38:42.763Z,21.65
2022-10-21T14:41:15.348Z,21.51
2022-10-21T14:43:43.798Z,21.04
2022-10-21T14:46:10.740Z,20.84
2022-10-21T14:48:46.544Z,21.06
2022-10-21T14:51:17.700Z,20.99
2022-10-21T14:53:57.957Z,21.33
2022-10-21T14:56:30.807Z,21.42
2022-10-21T14:58:59.334Z,21.00
2022-10-21T15:01:26.045Z,21.22
2022-10-21T15:03:58.141Z,20.87
2022-10-21T15:06:31.122Z,20.67
2022-10-21T15:08:58.818Z,20.89
2022-10-21T15:11:25.839Z,21.34
2022-10-21T15:14:14.069Z,21.32
2022-10-21T15:16:50.618Z,21.12
2022-10-21T15:19:23.173Z,20.76
2022-10-21T15:21:53.030Z,21.00
2022-10-21T15:24:24.665Z,21.13
2022-10-21T15:26:52.811Z,21.27
2022-10-21T15:29:34.638Z,20.50
2022-10-21T15:32:01.594Z,20.76
2022-10-21T15:34:28.381Z,19.86
2022-10-21T15:36:55.248Z,20.47
2022-10-21T15:39:21.721Z,20.17
2022-10-21T15:41:49.984Z,20.21
2022-10-21T15:44:33.686Z,20.67
2022-10-21T15:47:02.463Z,20.71
2022-10-21T15:49:42.110Z,20.30
2022-10-21T15:52:09.401Z,20.18
2022-10-21T15:54:35.869Z,20.04
2022-10-21T15:57:04.460Z,20.31
2022-10-21T15:59:33.164Z,20.07
2022-10-21T16:02:00.650Z,19.82
2022-10-21T16:04:27.549Z,19.70
2022-10-21T16:06:54.403Z,19.62
2022-10-21T16:09:22.461Z,19.88
2022-10-21T16:11:58.985Z,19.69
2022-10-21T16:14:29.552Z,19.63
2022-10-21T16:17:00.146Z,19.45
2022-10-21T16:19:27.090Z,19.52
2022-10-21T16:21:53.628Z,19.62
2022-10-21T16:24:20.110Z,19.56
2022-10-21T16:26:48.730Z,19.85
2022-10-21T16:29:21.204Z,19.82
2022-10-21T16:31:47.922Z,20.12
2022-10-21T16:34:14.341Z,20.19
2022-10-21T16:36:41.073Z,20.29
2022-10-21T16:39:18.639Z,19.75
2022-10-21T16:41:45.103Z,19.89
2022-10-21T16:44:11.631Z,19.96
2022-10-21T16:46:42.730Z,20.45
2022-10-21T16:49:13.987Z,20.25
2022-10-21T16:51:46.104Z,19.55
2022-10-21T16:54:13.815Z,20.10
2022-10-21T16:56:40.429Z,20.27
2022-10-21T16:59:07.844Z,19.81
2022-10-21T17:01:34.658Z,19.58
2022-10-21T17:04:01.154Z,19.95
2022-10-21T17:06:27.804Z,19.44
2022-10-21T17:08:56.757Z,19.51
2022-10-21T17:11:33.993Z,19.30
2022-10-21T17:14:02.156Z,19.08
2022-10-21T17:16:28.812Z,19.26
2022-10-21T17:18:55.415Z,19.35
2022-10-21T17:21:24.603Z,19.62
2022-10-21T17:23:51.687Z,19.41
2022-10-21T17:26:18.541Z,18.79
2022-10-21T17:28:45.364Z,18.83
2022-10-21T17:31:23.359Z,18.73
2022-10-21T17:33:50.966Z,18.89
2022-10-21T17:36:17.869Z,18.97
2022-10-21T17:38:44.789Z,18.55
2022-10-21T17:41:13.632Z,18.18
2022-10-21T17:43:40.484Z,18.50
2022-10-21T17:46:07.560Z,18.50
2022-10-21T17:48:34.073Z,18.68
2022-10-21T17:51:01.761Z,18.53
2022-10-21T17:53:29.413Z,19.01
2022-10-21T17:56:04.353Z,18.69
2022-10-21T17:58:30.953Z,18.71
2022-10-21T18:00:58.011Z,18.90
2022-10-21T18:03:25.782Z,18.32
2022-10-21T18:05:53.295Z,19.02
2022-10-21T18:08:19.837Z,18.28
2022-10-21T18:10:55.350Z,18.48
2022-10-21T18:13:23.244Z,18.65
2022-10-21T18:15:50.378Z,18.98
2022-10-21T18:18:17.930Z,18.75
2022-10-21T18:20:44.630Z,18.91
2022-10-21T18:23:11.307Z,18.53
2022-10-21T18:25:39.026Z,18.62
2022-10-21T18:28:05.693Z,18.72
2022-10-21T18:30:32.797Z,18.93
2022-10-21T18:32:59.435Z,18.57
2022-10-21T18:35:26.082Z,18.75
2022-10-21T18:37:52.628Z,18.88
2022-10-21T18:40:19.295Z,19.23
2022-10-21T18:42:45.777Z,19.00
2022-10-21T18:45:12.358Z,19.06
2022-10-21T18:47:39.183Z,18.94
2022-10-21T18:50:06.443Z,18.69
2022-10-21T18:52:32.907Z,19.06
2022-10-21T18:54:59.890Z,18.88
2022-10-21T18:57:26.430Z,18.90
2022-10-21T18:59:54.431Z,18.50
2022-10-21T19:02:22.366Z,18.69
2022-10-21T19:04:49.463Z,18.47
2022-10-21T19:07:16.820Z,18.97
2022-10-21T19:09:43.401Z,18.31
2022-10-21T19:12:11.980Z,18.14
2022-10-21T19:14:40.384Z,18.69
2022-10-21T19:17:07.122Z,18.68
2022-10-21T19:19:37.181Z,18.67
2022-10-21T19:22:05.781Z,18.44
2022-10-21T19:24:32.205Z,18.12
2022-10-21T19:26:59.266Z,17.39
2022-10-21T19:29:26.556Z,18.68
2022-10-21T19:31:54.184Z,18.37
2022-10-21T19:34:23.593Z,18.28
2022-10-21T19:36:50.454Z,18.25
2022-10-21T19:39:17.026Z,17.99
2022-10-21T19:41:43.869Z,17.98
2022-10-21T19:44:10.379Z,17.85
2022-10-21T19:46:37.566Z,17.75
2022-10-21T19:49:05.384Z,17.75
2022-10-21T19:51:32.429Z,17.40
2022-10-21T19:53:58.902Z,17.91
2022-10-21T19:56:29.683Z,17.76
2022-10-21T19:58:59.524Z,17.75
2022-10-21T20:01:26.675Z,17.76
2022-10-21T20:03:53.993Z,17.44
2022-10-21T20:06:26.304Z,17.38
2022-10-21T20:09:07.487Z,17.87
2022-10-21T20:11:34.504Z,17.68
2022-10-21T20:14:01.150Z,17.90
2022-10-21T20:16:36.551Z,18.06
2022-10-21T20:19:04.377Z,18.05
2022-10-21T20:21:34.509Z,17.86
2022-10-21T20:24:01.256Z,18.10
2022-10-21T20:26:28.878Z,18.01
2022-10-21T20:28:56.601Z,18.39
2022-10-21T20:31:23.362Z,18.79
2022-10-21T20:33:50.770Z,18.29
2022-10-21T20:36:23.057Z,18.06
2022-10-21T20:38:50.386Z,17.87
2022-10-21T20:41:22.645Z,18.35
2022-10-21T20:43:50.239Z,18.26
2022-10-21T20:46:17.357Z,17.92
2022-10-21T20:48:48.308Z,18.14
2022-10-21T20:51:17.665Z,18.58
2022-10-21T20:53:49.719Z,18.74
2022-10-21T20:56:16.705Z,18.81
2022-10-21T20:58:43.597Z,18.27
2022-10-21T21:01:11.664Z,18.37
2022-10-21T21:03:40.781Z,18.69
2022-10-21T21:06:07.565Z,18.40
2022-10-21T21:08:44.570Z,18.19
2022-10-21T21:11:16.179Z,18.31
2022-10-21T21:13:44.558Z,18.63
2022-10-21T21:16:21.980Z,18.82
2022-10-21T21:18:56.664Z,18.61
2022-10-21T21:21:25.184Z,18.28
2022-10-21T21:23:52.408Z,18.52
2022-10-21T21:26:24.344Z,18.80
2022-10-21T21:28:51.664Z,18.39
2022-10-21T21:31:19.825Z,18.44
2022-10-21T21:33:46.455Z,18.41
2022-10-21T21:36:14.507Z,18.25
2022-10-21T21:38:41.271Z,18.26
2022-10-21T21:41:09.829Z,18.41
2022-10-21T21:43:37.926Z,18.69
2022-10-21T21:46:04.560Z,18.80
2022-10-21T21:48:32.150Z,18.66
2022-10-21T21:51:03.448Z,18.56
2022-10-21T21:53:29.955Z,18.57
2022-10-21T21:55:59.762Z,18.54
2022-10-21T21:58:29.516Z,18.60
2022-10-21T22:00:56.016Z,18.69
2022-10-21T22:03:22.542Z,18.81
2022-10-21T22:05:48.994Z,18.70
2022-10-21T22:08:15.587Z,18.39
2022-10-21T22:10:42.570Z,18.65
2022-10-21T22:13:09.258Z,18.47
2022-10-21T22:15:47.678Z,18.15
2022-10-21T22:18:14.473Z,17.69
2022-10-21T22:20:41.141Z,17.65
2022-10-21T22:23:07.664Z,17.56
2022-10-21T22:25:34.377Z,17.50
2022-10-21T22:28:00.827Z,17.40
2022-10-21T22:30:27.345Z,17.66
2022-10-21T22:32:53.800Z,17.24
2022-10-21T22:35:20.227Z,17.56
2022-10-21T22:37:46.727Z,18.17
2022-10-21T22:40:13.445Z,18.25
2022-10-21T22:42:39.941Z,18.11
2022-10-21T22:45:07.259Z,18.13
2022-10-21T22:47:34.003Z,18.12
2022-10-21T22:50:00.578Z,18.38
2022-10-21T22:52:27.042Z,18.25
2022-10-21T22:54:53.519Z,18.11
2022-10-21T22:57:19.985Z,18.28
2022-10-21T22:59:50.595Z,18.34
2022-10-21T23:02:19.830Z,18.43
2022-10-21T23:04:46.291Z,18.12
2022-10-21T23:07:12.963Z,17.93
2022-10-21T23:09:39.487Z,17.79
2022-10-21T23:12:06.150Z,17.56
2022-10-21T23:14:32.634Z,17.66
2022-10-21T23:16:59.096Z,17.45
2022-10-21T23:19:25.653Z,17.75
2022-10-21T23:21:52.352Z,17.71
2022-10-21T23:24:19.809Z,17.72
2022-10-21T23:26:46.980Z,17.62
2022-10-21T23:29:13.679Z,17.90
2022-10-21T23:31:40.224Z,17.80
2022-10-21T23:34:06.795Z,17.82
2022-10-21T23:36:35.403Z,18.08
2022-10-21T23:39:02.402Z,17.62
2022-10-21T23:41:29.075Z,17.74
2022-10-21T23:43:55.739Z,17.44
2022-10-21T23:46:23.471Z,17.28
2022-10-21T23:48:50.066Z,17.38
2022-10-21T23:51:16.605Z,17.02
2022-10-21T23:53:43.106Z,17.32
2022-10-21T23:56:09.566Z,17.58
2022-10-21T23:58:35.973Z,17.46
